sensor_id;sensor_type;location;lat;lon;timestamp;noise_LAeq;noise_LA_min;noise_LA_max;noise_LA01;noise_LA95
80580;Laerm;69939;52.402;6.608;2023-05-07T00:02:17;57.12;32.49;73.41;;
80580;Laerm;69939;52.402;6.608;2023-05-07T00:04:44;40.14;32.64;63.82;;
80580;Laerm;69939;52.402;6.608;2023-05-07T00:07:17;53.83;31.67;72.09;;
80580;Laerm;69939;52.402;6.608;2023-05-07T00:09:45;58.07;34.19;74.09;;
80580;Laerm;69939;52.402;6.608;2023-05-07T00:12:12;54.73;33.88;72.22;;
80580;Laerm;69939;52.402;6.608;2023-05-07T00:14:41;53.58;31.74;71.35;;
80580;Laerm;69939;52.402;6.608;2023-05-07T00:17:08;54.29;33.46;72.26;;
80580;Laerm;69939;52.402;6.608;2023-05-07T00:19:36;54.48;33.88;71.11;;
80580;Laerm;69939;52.402;6.608;2023-05-07T00:22:03;62.63;40.93;78.38;;
80580;Laerm;69939;52.402;6.608;2023-05-07T00:24:31;58.95;33.91;78.22;;
80580;Laerm;69939;52.402;6.608;2023-05-07T00:26:58;42.23;33.62;63.37;;
80580;Laerm;69939;52.402;6.608;2023-05-07T00:29:24;52.56;32.21;70.09;;
80580;Laerm;69939;52.402;6.608;2023-05-07T00:31:51;57.33;33.09;73.79;;
80580;Laerm;69939;52.402;6.608;2023-05-07T00:34:19;56.93;32.51;73.84;;
80580;Laerm;69939;52.402;6.608;2023-05-07T00:36:46;53.47;33.15;70.55;;
80580;Laerm;69939;52.402;6.608;2023-05-07T00:39:14;55.94;33.77;73.31;;
80580;Laerm;69939;52.402;6.608;2023-05-07T00:41:45;56.96;32.54;72.20;;
80580;Laerm;69939;52.402;6.608;2023-05-07T00:44:12;52.23;33.87;70.18;;
80580;Laerm;69939;52.402;6.608;2023-05-07T00:46:40;58.53;32.33;73.05;;
80580;Laerm;69939;52.402;6.608;2023-05-07T00:49:07;42.24;32.26;63.69;;
80580;Laerm;69939;52.402;6.608;2023-05-07T00:51:34;53.13;31.06;71.75;;
80580;Laerm;69939;52.402;6.608;2023-05-07T00:54:03;52.38;31.42;70.73;;
80580;Laerm;69939;52.402;6.608;2023-05-07T00:56:31;54.06;34.16;70.56;;
80580;Laerm;69939;52.402;6.608;2023-05-07T00:59:01;60.26;37.54;73.34;;
80580;Laerm;69939;52.402;6.608;2023-05-07T01:01:28;54.32;30.93;72.15;;
80580;Laerm;69939;52.402;6.608;2023-05-07T01:03:55;40.02;31.04;63.72;;
80580;Laerm;69939;52.402;6.608;2023-05-07T01:06:26;57.55;32.73;75.34;;
80580;Laerm;69939;52.402;6.608;2023-05-07T01:08:54;40.99;31.43;63.69;;
80580;Laerm;69939;52.402;6.608;2023-05-07T01:11:22;60.00;32.82;78.00;;
80580;Laerm;69939;52.402;6.608;2023-05-07T01:13:51;55.47;31.47;72.53;;
80580;Laerm;69939;52.402;6.608;2023-05-07T01:16:22;54.92;31.86;70.11;;
80580;Laerm;69939;52.402;6.608;2023-05-07T01:18:49;57.09;32.37;72.85;;
80580;Laerm;69939;52.402;6.608;2023-05-07T01:21:23;59.95;32.08;78.69;;
80580;Laerm;69939;52.402;6.608;2023-05-07T01:23:54;41.29;31.20;63.06;;
80580;Laerm;69939;52.402;6.608;2023-05-07T01:26:21;54.68;30.85;70.72;;
80580;Laerm;69939;52.402;6.608;2023-05-07T01:28:49;52.13;31.08;70.77;;
80580;Laerm;69939;52.402;6.608;2023-05-07T01:31:17;41.31;32.15;63.39;;
80580;Laerm;69939;52.402;6.608;2023-05-07T01:33:50;57.05;31.79;74.18;;
80580;Laerm;69939;52.402;6.608;2023-05-07T01:36:19;57.94;33.89;73.28;;
80580;Laerm;69939;52.402;6.608;2023-05-07T01:38:48;58.92;32.65;78.03;;
80580;Laerm;69939;52.402;6.608;2023-05-07T01:41:17;53.08;32.80;71.87;;
80580;Laerm;69939;52.402;6.608;2023-05-07T01:43:47;41.50;31.21;69.70;;
80580;Laerm;69939;52.402;6.608;2023-05-07T01:46:17;51.35;32.08;67.94;;
80580;Laerm;69939;52.402;6.608;2023-05-07T01:48:45;47.57;31.97;67.56;;
80580;Laerm;69939;52.402;6.608;2023-05-07T01:51:12;41.92;31.97;64.53;;
80580;Laerm;69939;52.402;6.608;2023-05-07T01:53:39;41.48;31.79;63.33;;
80580;Laerm;69939;52.402;6.608;2023-05-07T01:56:07;55.49;33.05;73.89;;
80580;Laerm;69939;52.402;6.608;2023-05-07T01:58:35;57.50;33.36;73.74;;
80580;Laerm;69939;52.402;6.608;2023-05-07T02:01:02;42.77;31.45;62.69;;
80580;Laerm;69939;52.402;6.608;2023-05-07T02:03:29;43.37;31.12;65.36;;
80580;Laerm;69939;52.402;6.608;2023-05-07T02:05:56;59.24;33.58;77.45;;
80580;Laerm;69939;52.402;6.608;2023-05-07T02:08:23;56.12;33.15;73.25;;
80580;Laerm;69939;52.402;6.608;2023-05-07T02:10:51;56.84;33.47;72.22;;
80580;Laerm;69939;52.402;6.608;2023-05-07T02:13:19;48.92;32.01;67.14;;
80580;Laerm;69939;52.402;6.608;2023-05-07T02:15:49;52.69;31.29;71.12;;
80580;Laerm;69939;52.402;6.608;2023-05-07T02:18:16;57.71;32.93;78.62;;
80580;Laerm;69939;52.402;6.608;2023-05-07T02:20:44;42.25;30.95;64.22;;
80580;Laerm;69939;52.402;6.608;2023-05-07T02:23:11;50.32;31.43;67.65;;
80580;Laerm;69939;52.402;6.608;2023-05-07T02:25:38;55.12;33.91;71.04;;
80580;Laerm;69939;52.402;6.608;2023-05-07T02:28:04;56.01;32.77;73.55;;
80580;Laerm;69939;52.402;6.608;2023-05-07T02:30:32;53.15;35.09;70.21;;
80580;Laerm;69939;52.402;6.608;2023-05-07T02:33:00;49.33;32.60;74.15;;
80580;Laerm;69939;52.402;6.608;2023-05-07T02:35:27;40.44;31.75;63.89;;
80580;Laerm;69939;52.402;6.608;2023-05-07T02:37:54;42.54;32.26;65.13;;
80580;Laerm;69939;52.402;6.608;2023-05-07T02:40:21;43.24;33.82;63.49;;
80580;Laerm;69939;52.402;6.608;2023-05-07T02:42:49;43.94;32.42;63.97;;
80580;Laerm;69939;52.402;6.608;2023-05-07T02:45:17;52.37;33.82;69.82;;
80580;Laerm;69939;52.402;6.608;2023-05-07T02:47:47;55.50;33.04;75.96;;
80580;Laerm;69939;52.402;6.608;2023-05-07T02:50:16;44.68;32.25;64.30;;
80580;Laerm;69939;52.402;6.608;2023-05-07T02:52:43;53.09;34.39;69.17;;
80580;Laerm;69939;52.402;6.608;2023-05-07T02:55:11;46.59;33.50;69.92;;
80580;Laerm;69939;52.402;6.608;2023-05-07T02:57:38;54.95;34.43;72.45;;
80580;Laerm;69939;52.402;6.608;2023-05-07T03:00:13;48.85;34.28;69.09;;
80580;Laerm;69939;52.402;6.608;2023-05-07T03:02:43;46.89;34.62;64.14;;
80580;Laerm;69939;52.402;6.608;2023-05-07T03:05:11;57.07;33.82;79.10;;
80580;Laerm;69939;52.402;6.608;2023-05-07T03:07:39;60.71;35.20;77.86;;
80580;Laerm;69939;52.402;6.608;2023-05-07T03:10:07;58.11;37.64;72.87;;
80580;Laerm;69939;52.402;6.608;2023-05-07T03:12:34;48.47;36.91;64.53;;
80580;Laerm;69939;52.402;6.608;2023-05-07T03:15:04;60.23;40.21;73.22;;
80580;Laerm;69939;52.402;6.608;2023-05-07T03:17:31;56.28;36.65;74.36;;
80580;Laerm;69939;52.402;6.608;2023-05-07T03:20:01;54.52;37.54;72.05;;
80580;Laerm;69939;52.402;6.608;2023-05-07T03:22:28;53.27;36.70;71.52;;
80580;Laerm;69939;52.402;6.608;2023-05-07T03:24:58;54.78;37.05;76.77;;
80580;Laerm;69939;52.402;6.608;2023-05-07T03:27:25;54.39;37.22;75.05;;
80580;Laerm;69939;52.402;6.608;2023-05-07T03:29:51;49.00;37.13;63.94;;
80580;Laerm;69939;52.402;6.608;2023-05-07T03:32:18;59.98;38.44;75.89;;
80580;Laerm;69939;52.402;6.608;2023-05-07T03:34:46;55.29;36.80;74.39;;
80580;Laerm;69939;52.402;6.608;2023-05-07T03:37:13;52.51;35.90;68.71;;
80580;Laerm;69939;52.402;6.608;2023-05-07T03:39:40;46.03;35.83;63.07;;
80580;Laerm;69939;52.402;6.608;2023-05-07T03:42:09;52.05;34.68;68.67;;
80580;Laerm;69939;52.402;6.608;2023-05-07T03:44:36;56.87;36.76;74.44;;
80580;Laerm;69939;52.402;6.608;2023-05-07T03:47:04;51.72;34.48;67.50;;
80580;Laerm;69939;52.402;6.608;2023-05-07T03:49:31;52.51;35.27;71.04;;
80580;Laerm;69939;52.402;6.608;2023-05-07T03:52:00;57.67;35.09;73.15;;
80580;Laerm;69939;52.402;6.608;2023-05-07T03:54:30;52.23;34.98;69.56;;
80580;Laerm;69939;52.402;6.608;2023-05-07T03:56:57;43.68;35.07;64.30;;
80580;Laerm;69939;52.402;6.608;2023-05-07T03:59:25;44.38;35.65;64.14;;
80580;Laerm;69939;52.402;6.608;2023-05-07T04:01:52;53.28;35.06;72.58;;
80580;Laerm;69939;52.402;6.608;2023-05-07T04:04:18;57.67;35.03;75.96;;
80580;Laerm;69939;52.402;6.608;2023-05-07T04:06:45;55.96;35.61;71.90;;
80580;Laerm;69939;52.402;6.608;2023-05-07T04:09:12;43.54;34.17;63.27;;
80580;Laerm;69939;52.402;6.608;2023-05-07T04:11:39;55.39;34.86;72.60;;
80580;Laerm;69939;52.402;6.608;2023-05-07T04:14:06;49.64;33.10;72.99;;
80580;Laerm;69939;52.402;6.608;2023-05-07T04:16:36;47.29;34.71;65.63;;
80580;Laerm;69939;52.402;6.608;2023-05-07T04:19:02;64.45;35.39;82.97;;
80580;Laerm;69939;52.402;6.608;2023-05-07T04:21:29;63.56;34.34;82.93;;
80580;Laerm;69939;52.402;6.608;2023-05-07T04:23:57;54.69;34.03;73.88;;
80580;Laerm;69939;52.402;6.608;2023-05-07T04:26:24;61.03;35.50;74.29;;
80580;Laerm;69939;52.402;6.608;2023-05-07T04:28:53;61.25;37.98;78.79;;
80580;Laerm;69939;52.402;6.608;2023-05-07T04:31:20;60.87;37.72;73.67;;
80580;Laerm;69939;52.402;6.608;2023-05-07T04:33:49;50.42;35.30;66.01;;
80580;Laerm;69939;52.402;6.608;2023-05-07T04:36:17;53.61;35.16;70.75;;
80580;Laerm;69939;52.402;6.608;2023-05-07T04:38:53;55.68;34.34;73.46;;
80580;Laerm;69939;52.402;6.608;2023-05-07T04:41:19;60.19;39.73;72.67;;
80580;Laerm;69939;52.402;6.608;2023-05-07T04:43:47;61.14;36.38;76.49;;
80580;Laerm;69939;52.402;6.608;2023-05-07T04:46:13;60.19;37.05;71.18;;
80580;Laerm;69939;52.402;6.608;2023-05-07T04:48:40;59.61;38.50;74.25;;
80580;Laerm;69939;52.402;6.608;2023-05-07T04:51:08;59.39;36.77;71.79;;
80580;Laerm;69939;52.402;6.608;2023-05-07T04:53:37;49.16;34.69;64.51;;
80580;Laerm;69939;52.402;6.608;2023-05-07T04:56:05;56.97;35.07;74.08;;
80580;Laerm;69939;52.402;6.608;2023-05-07T04:58:32;55.44;34.89;71.96;;
80580;Laerm;69939;52.402;6.608;2023-05-07T05:00:59;53.56;36.34;69.60;;
80580;Laerm;69939;52.402;6.608;2023-05-07T05:03:27;57.56;35.74;74.59;;
80580;Laerm;69939;52.402;6.608;2023-05-07T05:05:55;59.09;35.73;74.56;;
80580;Laerm;69939;52.402;6.608;2023-05-07T05:08:27;59.59;35.06;78.85;;
80580;Laerm;69939;52.402;6.608;2023-05-07T05:10:53;59.41;35.45;77.71;;
80580;Laerm;69939;52.402;6.608;2023-05-07T05:13:22;56.82;35.64;70.14;;
80580;Laerm;69939;52.402;6.608;2023-05-07T05:15:49;58.63;37.70;76.85;;
80580;Laerm;69939;52.402;6.608;2023-05-07T05:18:16;56.21;35.27;70.95;;
80580;Laerm;69939;52.402;6.608;2023-05-07T05:20:43;55.27;35.86;72.11;;
80580;Laerm;69939;52.402;6.608;2023-05-07T05:23:12;57.67;37.70;70.78;;
80580;Laerm;69939;52.402;6.608;2023-05-07T05:25:40;51.95;36.68;68.59;;
80580;Laerm;69939;52.402;6.608;2023-05-07T05:28:07;58.47;36.41;75.00;;
80580;Laerm;69939;52.402;6.608;2023-05-07T05:30:35;60.07;37.20;75.02;;
80580;Laerm;69939;52.402;6.608;2023-05-07T05:33:01;57.44;37.03;71.67;;
80580;Laerm;69939;52.402;6.608;2023-05-07T05:35:29;57.80;35.87;75.49;;
80580;Laerm;69939;52.402;6.608;2023-05-07T05:37:57;59.32;35.53;76.40;;
80580;Laerm;69939;52.402;6.608;2023-05-07T05:40:25;59.88;36.46;74.68;;
80580;Laerm;69939;52.402;6.608;2023-05-07T05:42:53;58.85;35.71;72.78;;
80580;Laerm;69939;52.402;6.608;2023-05-07T05:45:20;58.70;35.80;71.48;;
80580;Laerm;69939;52.402;6.608;2023-05-07T05:47:46;56.04;36.58;72.33;;
80580;Laerm;69939;52.402;6.608;2023-05-07T05:50:13;58.37;36.09;74.00;;
80580;Laerm;69939;52.402;6.608;2023-05-07T05:52:40;59.93;35.35;73.26;;
80580;Laerm;69939;52.402;6.608;2023-05-07T05:55:08;49.72;34.94;66.27;;
80580;Laerm;69939;52.402;6.608;2023-05-07T05:57:35;57.75;35.68;71.29;;
80580;Laerm;69939;52.402;6.608;2023-05-07T06:00:09;60.92;35.16;76.30;;
80580;Laerm;69939;52.402;6.608;2023-05-07T06:02:39;54.90;35.60;72.52;;
80580;Laerm;69939;52.402;6.608;2023-05-07T06:05:07;51.94;36.15;70.68;;
80580;Laerm;69939;52.402;6.608;2023-05-07T06:07:34;60.36;36.81;77.33;;
80580;Laerm;69939;52.402;6.608;2023-05-07T06:10:01;56.09;35.90;71.17;;
80580;Laerm;69939;52.402;6.608;2023-05-07T06:12:28;58.90;35.50;73.87;;
80580;Laerm;69939;52.402;6.608;2023-05-07T06:14:55;61.08;38.50;74.75;;
80580;Laerm;69939;52.402;6.608;2023-05-07T06:17:24;57.61;40.89;71.09;;
80580;Laerm;69939;52.402;6.608;2023-05-07T06:19:52;57.76;36.19;75.24;;
80580;Laerm;69939;52.402;6.608;2023-05-07T06:22:19;55.13;35.29;72.48;;
80580;Laerm;69939;52.402;6.608;2023-05-07T06:24:45;57.46;34.87;74.69;;
80580;Laerm;69939;52.402;6.608;2023-05-07T06:27:17;59.44;38.55;73.29;;
80580;Laerm;69939;52.402;6.608;2023-05-07T06:29:47;58.09;35.75;73.63;;
80580;Laerm;69939;52.402;6.608;2023-05-07T06:32:17;60.47;37.52;74.03;;
80580;Laerm;69939;52.402;6.608;2023-05-07T06:34:48;54.38;36.56;69.86;;
80580;Laerm;69939;52.402;6.608;2023-05-07T06:37:15;56.77;38.06;69.60;;
80580;Laerm;69939;52.402;6.608;2023-05-07T06:39:43;59.94;36.19;73.94;;
80580;Laerm;69939;52.402;6.608;2023-05-07T06:42:11;53.76;36.77;69.73;;
80580;Laerm;69939;52.402;6.608;2023-05-07T06:44:37;60.15;36.13;75.58;;
80580;Laerm;69939;52.402;6.608;2023-05-07T06:47:04;60.76;40.19;72.32;;
80580;Laerm;69939;52.402;6.608;2023-05-07T06:49:32;57.92;36.54;74.19;;
80580;Laerm;69939;52.402;6.608;2023-05-07T06:52:00;63.68;41.73;75.91;;
80580;Laerm;69939;52.402;6.608;2023-05-07T06:54:28;59.54;41.48;72.31;;
80580;Laerm;69939;52.402;6.608;2023-05-07T06:56:55;62.14;42.45;75.40;;
80580;Laerm;69939;52.402;6.608;2023-05-07T06:59:23;59.85;37.84;72.59;;
80580;Laerm;69939;52.402;6.608;2023-05-07T07:01:50;62.12;39.90;75.64;;
80580;Laerm;69939;52.402;6.608;2023-05-07T07:04:16;60.09;38.82;73.06;;
80580;Laerm;69939;52.402;6.608;2023-05-07T07:06:43;61.06;38.83;73.40;;
80580;Laerm;69939;52.402;6.608;2023-05-07T07:09:11;64.37;43.32;74.58;;
80580;Laerm;69939;52.402;6.608;2023-05-07T07:11:39;60.26;38.86;74.43;;
80580;Laerm;69939;52.402;6.608;2023-05-07T07:14:06;59.90;38.51;73.44;;
80580;Laerm;69939;52.402;6.608;2023-05-07T07:16:32;63.20;41.32;75.11;;
80580;Laerm;69939;52.402;6.608;2023-05-07T07:19:00;62.47;41.21;76.05;;
80580;Laerm;69939;52.402;6.608;2023-05-07T07:21:26;59.96;37.68;72.26;;
80580;Laerm;69939;52.402;6.608;2023-05-07T07:23:53;62.23;43.58;73.65;;
80580;Laerm;69939;52.402;6.608;2023-05-07T07:26:21;62.55;39.65;76.74;;
80580;Laerm;69939;52.402;6.608;2023-05-07T07:28:48;63.42;39.97;76.22;;
80580;Laerm;69939;52.402;6.608;2023-05-07T07:31:15;59.04;39.65;72.62;;
80580;Laerm;69939;52.402;6.608;2023-05-07T07:34:00;63.67;42.07;73.22;;
80580;Laerm;69939;52.402;6.608;2023-05-07T07:36:31;60.02;36.13;75.64;;
80580;Laerm;69939;52.402;6.608;2023-05-07T07:38:58;62.30;39.85;78.19;;
80580;Laerm;69939;52.402;6.608;2023-05-07T07:41:26;62.09;39.46;75.63;;
80580;Laerm;69939;52.402;6.608;2023-05-07T07:43:53;63.57;42.01;80.11;;
80580;Laerm;69939;52.402;6.608;2023-05-07T07:46:20;63.52;47.56;75.55;;
80580;Laerm;69939;52.402;6.608;2023-05-07T07:48:49;63.87;44.82;74.04;;
80580;Laerm;69939;52.402;6.608;2023-05-07T07:51:16;58.65;38.38;73.41;;
80580;Laerm;69939;52.402;6.608;2023-05-07T07:53:43;64.15;42.23;84.27;;
80580;Laerm;69939;52.402;6.608;2023-05-07T07:56:13;61.74;40.68;73.03;;
80580;Laerm;69939;52.402;6.608;2023-05-07T07:58:42;59.61;39.13;71.47;;
80580;Laerm;69939;52.402;6.608;2023-05-07T08:01:09;59.41;39.63;76.86;;
80580;Laerm;69939;52.402;6.608;2023-05-07T08:03:37;62.00;39.10;74.50;;
80580;Laerm;69939;52.402;6.608;2023-05-07T08:06:04;60.37;39.42;72.34;;
80580;Laerm;69939;52.402;6.608;2023-05-07T08:08:31;60.33;37.79;73.98;;
80580;Laerm;69939;52.402;6.608;2023-05-07T08:10:58;63.12;39.77;76.04;;
80580;Laerm;69939;52.402;6.608;2023-05-07T08:13:26;61.16;36.97;75.07;;
80580;Laerm;69939;52.402;6.608;2023-05-07T08:15:57;59.33;35.75;73.38;;
80580;Laerm;69939;52.402;6.608;2023-05-07T08:18:25;61.20;38.50;73.48;;
80580;Laerm;69939;52.402;6.608;2023-05-07T08:20:53;63.23;41.34;76.53;;
80580;Laerm;69939;52.402;6.608;2023-05-07T08:23:20;63.66;40.06;83.32;;
80580;Laerm;69939;52.402;6.608;2023-05-07T08:25:49;63.71;40.76;76.58;;
80580;Laerm;69939;52.402;6.608;2023-05-07T08:28:16;63.20;39.68;73.87;;
80580;Laerm;69939;52.402;6.608;2023-05-07T08:30:47;62.16;39.01;76.55;;
80580;Laerm;69939;52.402;6.608;2023-05-07T08:33:15;62.70;39.12;76.78;;
80580;Laerm;69939;52.402;6.608;2023-05-07T08:35:42;62.92;41.21;75.48;;
80580;Laerm;69939;52.402;6.608;2023-05-07T08:38:09;63.99;41.70;77.38;;
80580;Laerm;69939;52.402;6.608;2023-05-07T08:40:39;61.99;39.64;74.15;;
80580;Laerm;69939;52.402;6.608;2023-05-07T08:43:07;64.19;41.93;75.43;;
80580;Laerm;69939;52.402;6.608;2023-05-07T08:45:35;63.48;38.50;75.59;;
80580;Laerm;69939;52.402;6.608;2023-05-07T08:48:05;64.57;38.07;86.03;;
80580;Laerm;69939;52.402;6.608;2023-05-07T08:50:36;63.80;41.65;72.70;;
80580;Laerm;69939;52.402;6.608;2023-05-07T08:53:04;57.34;37.97;72.31;;
80580;Laerm;69939;52.402;6.608;2023-05-07T08:55:31;63.75;39.18;76.84;;
80580;Laerm;69939;52.402;6.608;2023-05-07T08:57:58;61.77;40.18;74.40;;
80580;Laerm;69939;52.402;6.608;2023-05-07T09:00:26;59.37;38.51;73.51;;
80580;Laerm;69939;52.402;6.608;2023-05-07T09:02:53;63.26;39.64;74.84;;
80580;Laerm;69939;52.402;6.608;2023-05-07T09:05:21;62.96;41.46;73.48;;
80580;Laerm;69939;52.402;6.608;2023-05-07T09:07:49;63.52;42.03;74.08;;
80580;Laerm;69939;52.402;6.608;2023-05-07T09:10:16;60.87;37.46;71.93;;
80580;Laerm;69939;52.402;6.608;2023-05-07T09:12:43;62.72;40.11;75.44;;
80580;Laerm;69939;52.402;6.608;2023-05-07T09:15:11;63.49;39.45;74.57;;
80580;Laerm;69939;52.402;6.608;2023-05-07T09:17:38;64.68;40.65;76.82;;
80580;Laerm;69939;52.402;6.608;2023-05-07T09:20:07;65.23;42.55;76.74;;
80580;Laerm;69939;52.402;6.608;2023-05-07T09:22:36;62.93;39.85;82.52;;
80580;Laerm;69939;52.402;6.608;2023-05-07T09:25:06;62.22;39.80;72.72;;
80580;Laerm;69939;52.402;6.608;2023-05-07T09:27:33;62.84;40.97;76.28;;
80580;Laerm;69939;52.402;6.608;2023-05-07T09:30:03;62.90;43.76;72.86;;
80580;Laerm;69939;52.402;6.608;2023-05-07T09:32:35;63.73;45.23;78.77;;
80580;Laerm;69939;52.402;6.608;2023-05-07T09:35:04;62.97;39.94;74.32;;
80580;Laerm;69939;52.402;6.608;2023-05-07T09:37:31;63.73;45.93;76.70;;
80580;Laerm;69939;52.402;6.608;2023-05-07T09:39:58;62.51;40.08;74.56;;
80580;Laerm;69939;52.402;6.608;2023-05-07T09:42:26;63.91;41.69;79.31;;
80580;Laerm;69939;52.402;6.608;2023-05-07T09:44:53;63.07;41.05;75.14;;
80580;Laerm;69939;52.402;6.608;2023-05-07T09:47:23;63.31;41.97;74.57;;
80580;Laerm;69939;52.402;6.608;2023-05-07T09:49:56;64.46;39.79;79.31;;
80580;Laerm;69939;52.402;6.608;2023-05-07T09:52:24;62.86;39.62;78.54;;
80580;Laerm;69939;52.402;6.608;2023-05-07T09:54:54;63.27;41.21;74.48;;
80580;Laerm;69939;52.402;6.608;2023-05-07T09:57:26;63.37;40.36;74.16;;
80580;Laerm;69939;52.402;6.608;2023-05-07T09:59:56;63.46;42.55;74.41;;
80580;Laerm;69939;52.402;6.608;2023-05-07T10:02:26;64.89;43.65;77.42;;
80580;Laerm;69939;52.402;6.608;2023-05-07T10:04:55;64.68;38.03;81.20;;
80580;Laerm;69939;52.402;6.608;2023-05-07T10:07:23;57.41;36.22;74.36;;
80580;Laerm;69939;52.402;6.608;2023-05-07T10:09:51;64.55;40.25;83.55;;
80580;Laerm;69939;52.402;6.608;2023-05-07T10:12:18;60.43;36.83;75.60;;
80580;Laerm;69939;52.402;6.608;2023-05-07T10:14:48;65.04;46.06;76.77;;
80580;Laerm;69939;52.402;6.608;2023-05-07T10:17:16;64.00;40.76;76.12;;
80580;Laerm;69939;52.402;6.608;2023-05-07T10:19:47;63.34;43.50;74.81;;
80580;Laerm;69939;52.402;6.608;2023-05-07T10:22:17;64.98;44.07;76.43;;
80580;Laerm;69939;52.402;6.608;2023-05-07T10:24:52;69.04;44.53;89.61;;
80580;Laerm;69939;52.402;6.608;2023-05-07T10:27:22;63.33;40.18;74.45;;
80580;Laerm;69939;52.402;6.608;2023-05-07T10:30:01;64.66;41.77;75.62;;
80580;Laerm;69939;52.402;6.608;2023-05-07T10:32:40;66.20;43.34;83.23;;
80580;Laerm;69939;52.402;6.608;2023-05-07T10:35:11;64.07;43.38;76.47;;
80580;Laerm;69939;52.402;6.608;2023-05-07T10:37:41;63.46;42.36;75.70;;
80580;Laerm;69939;52.402;6.608;2023-05-07T10:40:11;63.41;40.07;72.65;;
80580;Laerm;69939;52.402;6.608;2023-05-07T10:42:38;64.48;43.30;75.76;;
80580;Laerm;69939;52.402;6.608;2023-05-07T10:45:13;63.71;42.14;73.94;;
80580;Laerm;69939;52.402;6.608;2023-05-07T10:48:12;62.01;40.03;78.05;;
80580;Laerm;69939;52.402;6.608;2023-05-07T10:50:40;64.30;41.22;75.05;;
80580;Laerm;69939;52.402;6.608;2023-05-07T10:53:24;62.88;40.60;75.52;;
80580;Laerm;69939;52.402;6.608;2023-05-07T10:56:26;63.80;41.63;74.76;;
80580;Laerm;69939;52.402;6.608;2023-05-07T10:58:54;62.21;39.58;72.96;;
80580;Laerm;69939;52.402;6.608;2023-05-07T11:01:56;63.70;42.21;75.47;;
80580;Laerm;69939;52.402;6.608;2023-05-07T11:04:23;63.40;42.20;72.87;;
80580;Laerm;69939;52.402;6.608;2023-05-07T11:07:32;64.89;44.39;78.89;;
80580;Laerm;69939;52.402;6.608;2023-05-07T11:10:02;64.46;42.23;78.87;;
80580;Laerm;69939;52.402;6.608;2023-05-07T11:12:50;64.43;44.28;73.88;;
80580;Laerm;69939;52.402;6.608;2023-05-07T11:15:39;64.27;43.46;75.79;;
80580;Laerm;69939;52.402;6.608;2023-05-07T11:18:10;64.22;43.72;74.05;;
80580;Laerm;69939;52.402;6.608;2023-05-07T11:21:03;64.53;42.36;81.57;;
80580;Laerm;69939;52.402;6.608;2023-05-07T11:23:56;67.38;50.76;80.38;;
80580;Laerm;69939;52.402;6.608;2023-05-07T11:26:28;63.85;46.55;76.51;;
80580;Laerm;69939;52.402;6.608;2023-05-07T11:28:55;63.88;44.25;76.02;;
80580;Laerm;69939;52.402;6.608;2023-05-07T11:31:25;64.54;42.71;74.00;;
80580;Laerm;69939;52.402;6.608;2023-05-07T11:33:55;64.26;41.12;77.43;;
80580;Laerm;69939;52.402;6.608;2023-05-07T11:36:23;65.18;41.35;82.21;;
80580;Laerm;69939;52.402;6.608;2023-05-07T11:38:51;63.88;42.46;74.47;;
80580;Laerm;69939;52.402;6.608;2023-05-07T11:41:18;63.26;41.70;74.50;;
80580;Laerm;69939;52.402;6.608;2023-05-07T11:43:57;65.23;48.14;75.39;;
80580;Laerm;69939;52.402;6.608;2023-05-07T11:46:26;60.34;37.57;74.28;;
80580;Laerm;69939;52.402;6.608;2023-05-07T11:48:54;62.23;36.88;73.33;;
80580;Laerm;69939;52.402;6.608;2023-05-07T11:51:23;63.74;40.97;75.05;;
80580;Laerm;69939;52.402;6.608;2023-05-07T11:53:52;63.83;43.86;74.56;;
80580;Laerm;69939;52.402;6.608;2023-05-07T11:56:19;63.27;42.66;73.85;;
80580;Laerm;69939;52.402;6.608;2023-05-07T11:58:47;64.05;36.74;75.64;;
80580;Laerm;69939;52.402;6.608;2023-05-07T12:01:15;64.96;39.07;78.67;;
80580;Laerm;69939;52.402;6.608;2023-05-07T12:03:45;62.97;41.68;84.28;;
80580;Laerm;69939;52.402;6.608;2023-05-07T12:06:16;66.02;47.40;78.75;;
80580;Laerm;69939;52.402;6.608;2023-05-07T12:08:46;62.06;42.64;72.72;;
80580;Laerm;69939;52.402;6.608;2023-05-07T12:11:24;62.37;41.32;73.05;;
80580;Laerm;69939;52.402;6.608;2023-05-07T12:13:51;63.56;40.10;75.81;;
80580;Laerm;69939;52.402;6.608;2023-05-07T12:16:20;63.89;43.49;74.89;;
80580;Laerm;69939;52.402;6.608;2023-05-07T12:18:48;66.84;42.10;83.83;;
80580;Laerm;69939;52.402;6.608;2023-05-07T12:21:16;64.78;45.32;73.80;;
80580;Laerm;69939;52.402;6.608;2023-05-07T12:23:43;65.01;44.89;76.89;;
80580;Laerm;69939;52.402;6.608;2023-05-07T12:26:10;64.37;42.77;81.24;;
80580;Laerm;69939;52.402;6.608;2023-05-07T12:28:38;65.12;44.41;78.64;;
80580;Laerm;69939;52.402;6.608;2023-05-07T12:31:05;62.73;39.75;73.45;;
80580;Laerm;69939;52.402;6.608;2023-05-07T12:33:34;62.84;39.90;74.73;;
80580;Laerm;69939;52.402;6.608;2023-05-07T12:36:05;65.55;48.47;75.32;;
80580;Laerm;69939;52.402;6.608;2023-05-07T12:38:38;64.04;43.38;74.13;;
80580;Laerm;69939;52.402;6.608;2023-05-07T12:41:08;64.55;43.73;77.32;;
80580;Laerm;69939;52.402;6.608;2023-05-07T12:43:36;63.97;39.75;74.15;;
80580;Laerm;69939;52.402;6.608;2023-05-07T12:46:06;65.36;41.73;74.43;;
80580;Laerm;69939;52.402;6.608;2023-05-07T12:48:35;63.69;43.36;75.93;;
80580;Laerm;69939;52.402;6.608;2023-05-07T12:51:02;64.15;46.85;73.72;;
80580;Laerm;69939;52.402;6.608;2023-05-07T12:53:29;62.63;38.74;79.36;;
80580;Laerm;69939;52.402;6.608;2023-05-07T12:56:05;63.10;42.21;74.57;;
80580;Laerm;69939;52.402;6.608;2023-05-07T12:58:35;65.78;44.73;75.98;;
80580;Laerm;69939;52.402;6.608;2023-05-07T13:01:05;65.55;47.62;76.85;;
80580;Laerm;69939;52.402;6.608;2023-05-07T13:03:34;64.84;43.05;77.29;;
80580;Laerm;69939;52.402;6.608;2023-05-07T13:06:04;64.69;39.97;74.48;;
80580;Laerm;69939;52.402;6.608;2023-05-07T13:08:34;64.78;44.83;75.00;;
80580;Laerm;69939;52.402;6.608;2023-05-07T13:11:04;64.72;43.70;77.10;;
80580;Laerm;69939;52.402;6.608;2023-05-07T13:13:31;65.00;41.36;79.28;;
80580;Laerm;69939;52.402;6.608;2023-05-07T13:15:58;65.10;42.96;81.95;;
80580;Laerm;69939;52.402;6.608;2023-05-07T13:18:26;63.38;38.28;73.96;;
80580;Laerm;69939;52.402;6.608;2023-05-07T13:20:53;65.48;44.07;75.86;;
80580;Laerm;69939;52.402;6.608;2023-05-07T13:23:20;63.76;41.80;77.64;;
80580;Laerm;69939;52.402;6.608;2023-05-07T13:25:48;63.77;42.05;75.18;;
80580;Laerm;69939;52.402;6.608;2023-05-07T13:28:18;65.37;45.91;77.78;;
80580;Laerm;69939;52.402;6.608;2023-05-07T13:30:45;63.72;45.21;78.07;;
80580;Laerm;69939;52.402;6.608;2023-05-07T13:33:12;66.02;40.06;83.49;;
80580;Laerm;69939;52.402;6.608;2023-05-07T13:35:39;64.80;44.32;77.32;;
80580;Laerm;69939;52.402;6.608;2023-05-07T13:38:06;65.13;42.38;80.40;;
80580;Laerm;69939;52.402;6.608;2023-05-07T13:40:33;64.14;40.58;76.09;;
80580;Laerm;69939;52.402;6.608;2023-05-07T13:43:00;64.02;40.54;73.87;;
80580;Laerm;69939;52.402;6.608;2023-05-07T13:45:30;66.93;41.80;78.43;;
80580;Laerm;69939;52.402;6.608;2023-05-07T13:47:57;63.16;40.62;74.40;;
80580;Laerm;69939;52.402;6.608;2023-05-07T13:50:24;64.05;41.32;76.33;;
80580;Laerm;69939;52.402;6.608;2023-05-07T13:52:52;65.67;44.08;80.07;;
80580;Laerm;69939;52.402;6.608;2023-05-07T13:55:21;61.39;38.81;71.80;;